KEYW/EYW METAR and TAF weather

Enter ICAO airport designator
Station Type Date Time Source
KEYW METAR 2021/07/29 08:53 UTC NOAA

KEYW 290853Z AUTO 08003KT 10SM FEW025 SCT036 28/24 A3000 RMK AO2 SLP158 T02830239 56004


Station Type Date Time Source
KEYW Decoded METAR 2021/07/29 08:53 UTC NOAA

KEY WEST INTERNATIONAL AIRPORT , FL, United States (KEYW) 24-33N 81-46W 5M
Jul 29, 2021 - 04:53 AM EDT / 2021.07.29 0853 UTC
Wind: from the E (080 degrees) at 3 MPH (3 KT):0
Visibility: 10 mile(s):0
Sky conditions: partly cloudy
Temperature: 82.9 F (28.3 C)
Dew Point: 75.0 F (23.9 C)
Relative Humidity: 77%
Pressure (altimeter): 30 in. Hg (1015 hPa)
Pressure tendency: 0.01 inches (0.4 hPa) lower than three hours ago
ob: KEYW 290853Z AUTO 08003KT 10SM FEW025 SCT036 28/24 A3000 RMK AO2 SLP158 T02830239 56004
cycle: 9

Station Type Date Time Source
KEYW TAF 2021/07/29 06:27 UTC NOAA

TAF KEYW 290525Z 2906/3006 06004KT P6SM SCT027
FM290900 12005KT P6SM SCT025

Example: see airport list